createdAt,value
2019-03-04T00:01:15.105Z,99.90
2019-03-04T00:03:44.787Z,99.90
2019-03-04T00:06:14.451Z,99.90
2019-03-04T00:08:44.134Z,99.90
2019-03-04T00:11:13.822Z,99.90
2019-03-04T00:13:43.642Z,99.90
2019-03-04T00:16:13.411Z,99.90
2019-03-04T00:18:43.147Z,99.90
2019-03-04T00:21:12.871Z,99.90
2019-03-04T00:23:42.574Z,99.90
2019-03-04T00:26:12.493Z,99.90
2019-03-04T00:28:42.494Z,99.90
2019-03-04T00:31:12.169Z,99.90
2019-03-04T00:33:41.916Z,99.90
2019-03-04T00:36:11.622Z,99.90
2019-03-04T00:38:41.311Z,99.90
2019-03-04T00:41:10.983Z,99.90
2019-03-04T00:43:40.750Z,99.90
2019-03-04T00:46:10.466Z,99.90
2019-03-04T00:48:40.222Z,99.90
2019-03-04T00:51:09.923Z,99.90
2019-03-04T00:53:39.649Z,99.90
2019-03-04T00:56:09.321Z,99.90
2019-03-04T00:58:39.365Z,99.90
2019-03-04T01:01:09.282Z,99.90
2019-03-04T01:03:39.002Z,99.90
2019-03-04T01:06:09.696Z,99.90
2019-03-04T01:08:39.500Z,99.90
2019-03-04T01:11:09.371Z,99.90
2019-03-04T01:13:39.167Z,99.90
2019-03-04T01:16:08.933Z,99.90
2019-03-04T01:18:38.689Z,99.90
2019-03-04T01:21:08.598Z,99.90
2019-03-04T01:23:38.647Z,99.90
2019-03-04T01:26:08.571Z,99.90
2019-03-04T01:28:38.279Z,99.90
2019-03-04T01:31:07.962Z,99.90
2019-03-04T01:33:37.650Z,99.90
2019-03-04T01:36:07.440Z,99.90
2019-03-04T01:38:37.177Z,99.90
2019-03-04T01:41:07.391Z,99.90
2019-03-04T01:43:37.131Z,99.90
2019-03-04T01:46:06.879Z,99.90
2019-03-04T01:48:36.685Z,99.90
2019-03-04T01:51:06.483Z,99.90
2019-03-04T01:53:36.611Z,99.90
2019-03-04T01:56:06.377Z,99.90
2019-03-04T01:58:47.287Z,99.90
2019-03-04T02:01:17.051Z,99.90
2019-03-04T02:03:46.750Z,99.90
2019-03-04T02:06:16.536Z,99.90
2019-03-04T02:08:46.326Z,99.90
2019-03-04T02:11:16.021Z,99.90
2019-03-04T02:13:45.914Z,99.90
2019-03-04T02:16:15.590Z,99.90
2019-03-04T02:18:45.345Z,99.90
2019-03-04T02:21:15.084Z,99.90
2019-03-04T02:23:44.794Z,99.90
2019-03-04T02:26:35.897Z,99.90
2019-03-04T02:29:05.550Z,99.90
2019-03-04T02:31:35.312Z,99.90
2019-03-04T02:34:05.014Z,99.90
2019-03-04T02:36:34.758Z,99.90
2019-03-04T02:39:05.281Z,99.90
2019-03-04T02:41:35.057Z,99.90
2019-03-04T02:44:04.888Z,99.90
2019-03-04T02:46:34.697Z,99.90
2019-03-04T02:49:04.523Z,99.90
2019-03-04T02:51:34.206Z,99.90
2019-03-04T02:54:03.934Z,99.90
2019-03-04T02:56:33.635Z,99.90
2019-03-04T02:59:03.394Z,99.90
2019-03-04T03:01:33.068Z,99.90
2019-03-04T03:04:02.917Z,99.90
2019-03-04T03:06:32.625Z,99.90
2019-03-04T03:09:02.561Z,99.90
2019-03-04T03:11:32.288Z,99.90
2019-03-04T03:14:02.033Z,99.90
2019-03-04T03:16:31.713Z,99.90
2019-03-04T03:19:01.424Z,99.90
2019-03-04T03:21:31.096Z,99.90
2019-03-04T03:24:00.798Z,99.90
2019-03-04T03:26:30.497Z,99.90
2019-03-04T03:29:00.189Z,99.90
2019-03-04T03:31:29.964Z,99.90
2019-03-04T03:33:59.868Z,99.90
2019-03-04T03:36:29.638Z,99.90
2019-03-04T03:38:59.351Z,99.90
2019-03-04T03:41:29.123Z,99.90
2019-03-04T03:43:58.794Z,99.90
2019-03-04T03:46:28.510Z,99.90
2019-03-04T03:48:58.167Z,99.90
2019-03-04T03:51:27.911Z,99.90
2019-03-04T03:53:57.758Z,99.90
2019-03-04T03:56:27.412Z,99.90
2019-03-04T03:58:57.111Z,99.90
2019-03-04T04:01:26.790Z,99.90
2019-03-04T04:03:56.514Z,99.90
2019-03-04T04:06:26.322Z,99.90
2019-03-04T04:08:56.077Z,99.90
2019-03-04T04:11:25.804Z,99.90
2019-03-04T04:13:55.543Z,99.90
2019-03-04T04:16:25.291Z,99.90
2019-03-04T04:18:54.941Z,99.90
2019-03-04T04:21:24.634Z,99.90
2019-03-04T04:23:54.318Z,99.90
2019-03-04T04:26:24.096Z,99.90
2019-03-04T04:29:00.891Z,99.90
2019-03-04T04:31:30.630Z,99.90
2019-03-04T04:34:00.325Z,99.90
2019-03-04T04:36:30.290Z,99.90
2019-03-04T04:39:01.513Z,99.90
2019-03-04T04:41:31.442Z,99.90
2019-03-04T04:44:01.126Z,99.90
2019-03-04T04:46:56.519Z,99.90
2019-03-04T04:49:28.698Z,99.90
2019-03-04T04:51:58.497Z,99.90
2019-03-04T04:54:29.210Z,99.90
2019-03-04T04:56:59.010Z,99.90
2019-03-04T04:59:28.774Z,99.90
2019-03-04T05:01:58.814Z,99.90
2019-03-04T05:04:28.507Z,99.90
2019-03-04T05:06:58.218Z,99.90
2019-03-04T05:09:27.917Z,99.90
2019-03-04T05:11:59.694Z,99.90
2019-03-04T05:14:29.017Z,99.90
2019-03-04T05:16:58.767Z,99.90
2019-03-04T05:19:28.427Z,99.90
2019-03-04T05:21:58.119Z,99.90
2019-03-04T05:24:29.564Z,99.90
2019-03-04T05:26:59.188Z,99.90
2019-03-04T05:29:28.967Z,99.90
2019-03-04T05:31:58.991Z,99.90
2019-03-04T05:34:28.763Z,99.90
2019-03-04T05:36:58.476Z,99.90
2019-03-04T05:39:28.310Z,99.90
2019-03-04T05:41:58.155Z,99.90
2019-03-04T05:44:27.863Z,99.90
2019-03-04T05:46:57.575Z,99.90
2019-03-04T05:49:27.295Z,99.90
2019-03-04T05:51:57.034Z,99.90
2019-03-04T05:54:26.742Z,99.90
2019-03-04T05:56:56.418Z,99.90
2019-03-04T05:59:26.122Z,99.90
2019-03-04T06:02:04.640Z,99.90
2019-03-04T06:04:34.315Z,99.90
2019-03-04T06:07:07.655Z,99.90
2019-03-04T06:09:37.395Z,99.90
2019-03-04T06:12:07.104Z,99.90
2019-03-04T06:14:36.862Z,99.90
2019-03-04T06:17:06.589Z,99.90
2019-03-04T06:19:36.303Z,99.90
2019-03-04T06:22:06.059Z,99.50
2019-03-04T06:24:35.799Z,99.30
2019-03-04T06:27:05.495Z,99.50
2019-03-04T06:29:35.230Z,99.60
2019-03-04T06:32:04.988Z,99.50
2019-03-04T06:34:34.711Z,99.90
2019-03-04T06:37:04.422Z,99.90
2019-03-04T06:39:34.115Z,99.90
2019-03-04T06:42:03.753Z,99.90
2019-03-04T06:44:33.490Z,99.90
2019-03-04T06:47:03.212Z,99.90
2019-03-04T06:49:32.912Z,99.60
2019-03-04T06:52:02.738Z,99.70
2019-03-04T06:55:05.221Z,99.60
2019-03-04T06:57:47.091Z,98.90
2019-03-04T07:00:49.051Z,99.50
2019-03-04T07:03:50.338Z,99.90
2019-03-04T07:06:20.115Z,99.90
2019-03-04T07:09:11.032Z,99.90
2019-03-04T07:11:44.915Z,99.90
2019-03-04T07:14:14.703Z,99.90
2019-03-04T07:16:45.458Z,99.90
2019-03-04T07:19:25.281Z,99.90
2019-03-04T07:21:55.057Z,99.90
2019-03-04T07:24:24.884Z,99.90
2019-03-04T07:26:54.798Z,99.90
2019-03-04T07:29:24.557Z,99.90
2019-03-04T07:31:54.337Z,99.90
2019-03-04T07:34:24.115Z,99.90
2019-03-04T07:36:54.042Z,99.90
2019-03-04T07:39:23.794Z,99.90
2019-03-04T07:41:58.528Z,99.90
2019-03-04T07:44:28.318Z,99.90
2019-03-04T07:46:58.122Z,99.90
2019-03-04T07:49:27.900Z,99.90
2019-03-04T07:51:57.675Z,99.90
2019-03-04T07:54:27.490Z,99.90
2019-03-04T07:57:07.491Z,99.90
2019-03-04T07:59:37.251Z,99.90
2019-03-04T08:02:08.926Z,99.90
2019-03-04T08:04:38.793Z,99.90
2019-03-04T08:07:51.520Z,99.90
2019-03-04T08:10:56.409Z,99.90
2019-03-04T08:13:29.872Z,99.90
2019-03-04T08:16:00.291Z,99.90
2019-03-04T08:18:30.026Z,99.90
2019-03-04T08:20:59.784Z,99.90
2019-03-04T08:23:29.493Z,99.90
2019-03-04T08:25:59.263Z,99.90
2019-03-04T08:28:36.220Z,99.90
2019-03-04T08:31:05.978Z,99.00
2019-03-04T08:33:35.623Z,99.40
2019-03-04T08:36:05.359Z,98.80
2019-03-04T08:38:35.147Z,99.00
2019-03-04T08:41:04.875Z,99.40
2019-03-04T08:43:34.633Z,99.10
2019-03-04T08:46:04.542Z,97.20
2019-03-04T08:48:34.250Z,97.00
2019-03-04T08:51:04.106Z,96.40
2019-03-04T08:53:33.882Z,96.30
2019-03-04T08:56:03.606Z,94.90
2019-03-04T08:58:34.362Z,94.70
2019-03-04T09:01:04.351Z,94.20
2019-03-04T09:03:34.133Z,94.50
2019-03-04T09:06:03.824Z,94.20
2019-03-04T09:08:33.563Z,93.40
2019-03-04T09:11:03.279Z,93.00
2019-03-04T09:13:33.124Z,92.20
2019-03-04T09:16:02.904Z,91.90
2019-03-04T09:18:32.666Z,92.20
2019-03-04T09:21:02.397Z,91.90
2019-03-04T09:23:32.181Z,91.90
2019-03-04T09:26:07.258Z,92.30
2019-03-04T09:28:37.018Z,91.70
2019-03-04T09:31:06.812Z,92.00
2019-03-04T09:33:36.518Z,92.10
2019-03-04T09:36:06.204Z,92.20
2019-03-04T09:38:35.967Z,92.50
2019-03-04T09:41:06.118Z,92.70
2019-03-04T09:43:43.273Z,93.00
2019-03-04T09:46:21.945Z,93.80
2019-03-04T09:48:51.779Z,94.10
2019-03-04T09:51:24.684Z,93.70
2019-03-04T09:53:53.348Z,93.60
2019-03-04T09:56:23.189Z,93.30
2019-03-04T09:58:52.955Z,93.60
2019-03-04T10:01:36.356Z,94.10
2019-03-04T10:04:37.619Z,94.90
2019-03-04T10:07:32.497Z,95.10
2019-03-04T10:10:24.595Z,95.30
2019-03-04T10:13:22.624Z,95.70
2019-03-04T10:16:35.260Z,95.90
2019-03-04T10:19:29.103Z,94.70
2019-03-04T10:22:08.200Z,92.90
2019-03-04T10:24:53.064Z,91.30
2019-03-04T10:27:43.723Z,90.50
2019-03-04T10:30:31.717Z,90.20
2019-03-04T10:33:52.484Z,88.60
2019-03-04T10:36:42.915Z,86.40
2019-03-04T10:39:32.758Z,86.50
2019-03-04T10:42:49.694Z,86.60
2019-03-04T10:45:49.355Z,84.00
2019-03-04T10:48:19.114Z,84.40
2019-03-04T10:50:48.987Z,85.60
2019-03-04T10:53:18.762Z,87.90
2019-03-04T10:55:52.767Z,86.40
2019-03-04T10:58:22.477Z,85.00
2019-03-04T11:00:52.334Z,82.50
2019-03-04T11:03:22.110Z,81.30
2019-03-04T11:05:51.901Z,79.20
2019-03-04T11:08:21.571Z,76.60
2019-03-04T11:10:51.438Z,72.70
2019-03-04T11:13:21.171Z,75.20
2019-03-04T11:15:52.278Z,73.60
2019-03-04T11:18:22.012Z,77.30
2019-03-04T11:20:51.880Z,78.20
2019-03-04T11:23:21.709Z,78.20
2019-03-04T11:25:54.193Z,77.70
2019-03-04T11:28:24.161Z,76.70
2019-03-04T11:31:00.561Z,78.80
2019-03-04T11:33:30.906Z,78.00
2019-03-04T11:36:02.858Z,74.80
2019-03-04T11:38:37.927Z,76.20
2019-03-04T11:41:08.622Z,73.10
2019-03-04T11:43:47.999Z,71.30
2019-03-04T11:46:23.382Z,72.10
2019-03-04T11:48:53.294Z,73.60
2019-03-04T11:51:23.042Z,79.20
2019-03-04T11:53:56.129Z,83.60
2019-03-04T11:56:25.875Z,84.20
2019-03-04T11:59:03.535Z,86.70
2019-03-04T12:01:55.969Z,85.60
2019-03-04T12:04:25.706Z,86.00
2019-03-04T12:06:55.567Z,87.70
2019-03-04T12:09:25.321Z,89.30
2019-03-04T12:11:55.187Z,87.60
2019-03-04T12:14:24.917Z,87.30
2019-03-04T12:16:54.726Z,87.60
2019-03-04T12:19:24.558Z,88.80
2019-03-04T12:21:58.266Z,91.30
2019-03-04T12:24:28.202Z,95.50
2019-03-04T12:26:58.083Z,99.70
2019-03-04T12:29:27.901Z,99.90
2019-03-04T12:32:19.634Z,99.90
2019-03-04T12:34:49.349Z,99.90
2019-03-04T12:37:19.840Z,99.90
2019-03-04T12:39:52.722Z,99.90
2019-03-04T12:42:22.482Z,99.90
2019-03-04T12:44:52.278Z,99.90
2019-03-04T12:47:23.002Z,99.90
2019-03-04T12:49:52.817Z,99.90
2019-03-04T12:52:23.361Z,99.90
2019-03-04T12:54:53.243Z,99.90
2019-03-04T12:57:23.119Z,99.90
2019-03-04T12:59:52.937Z,99.90
2019-03-04T13:02:22.975Z,99.90
2019-03-04T13:04:52.723Z,99.90
2019-03-04T13:07:22.649Z,99.90
2019-03-04T13:09:52.439Z,99.90
2019-03-04T13:12:22.081Z,99.90
2019-03-04T13:14:51.868Z,99.90
2019-03-04T13:17:21.683Z,99.90
2019-03-04T13:19:51.504Z,99.90
2019-03-04T13:22:22.730Z,99.90
2019-03-04T13:24:52.570Z,99.90
2019-03-04T13:27:24.039Z,99.90
2019-03-04T13:29:53.965Z,99.90
2019-03-04T13:32:23.769Z,99.90
2019-03-04T13:34:53.622Z,99.90
2019-03-04T13:37:23.339Z,99.90
2019-03-04T13:39:56.160Z,99.90
2019-03-04T13:42:50.435Z,99.90
2019-03-04T13:45:30.639Z,99.90
2019-03-04T13:48:03.510Z,99.90
2019-03-04T13:50:36.201Z,99.90
2019-03-04T13:53:06.643Z,99.90
2019-03-04T13:55:36.472Z,99.90
2019-03-04T13:58:06.477Z,99.90
2019-03-04T14:00:36.613Z,99.90
2019-03-04T14:03:10.244Z,99.90
2019-03-04T14:05:40.074Z,99.90
2019-03-04T14:08:09.843Z,99.90
2019-03-04T14:10:39.570Z,99.90
2019-03-04T14:13:09.310Z,99.90
2019-03-04T14:15:40.186Z,99.90
2019-03-04T14:18:10.006Z,99.90
2019-03-04T14:20:39.912Z,98.50
2019-03-04T14:23:09.721Z,97.80
2019-03-04T14:25:40.799Z,97.50
2019-03-04T14:28:10.614Z,97.90
2019-03-04T14:30:40.445Z,99.40
2019-03-04T14:33:10.171Z,98.90
2019-03-04T14:35:39.959Z,99.50
2019-03-04T14:38:16.710Z,98.20
2019-03-04T14:40:46.612Z,97.40
2019-03-04T14:43:16.441Z,98.30
2019-03-04T14:45:46.315Z,97.90
2019-03-04T14:48:18.020Z,97.60
2019-03-04T14:50:47.990Z,97.30
2019-03-04T14:53:17.808Z,97.60
2019-03-04T14:55:47.718Z,97.10
2019-03-04T14:58:17.479Z,97.70
2019-03-04T15:00:49.491Z,97.70
2019-03-04T15:03:23.352Z,97.50
2019-03-04T15:05:51.079Z,97.50
2019-03-04T15:08:20.844Z,97.10
2019-03-04T15:10:50.700Z,96.80
2019-03-04T15:13:20.807Z,97.60
2019-03-04T15:15:50.708Z,96.80
2019-03-04T15:18:20.719Z,96.80
2019-03-04T15:20:51.844Z,97.40
2019-03-04T15:23:21.610Z,96.90
2019-03-04T15:25:51.950Z,96.60
2019-03-04T15:28:23.033Z,96.80
2019-03-04T15:30:55.483Z,96.20
2019-03-04T15:33:25.400Z,95.60
2019-03-04T15:35:55.545Z,96.00
2019-03-04T15:38:25.496Z,96.30
2019-03-04T15:40:56.242Z,96.10
2019-03-04T15:43:26.132Z,95.80
2019-03-04T15:45:56.577Z,95.70
2019-03-04T15:48:28.579Z,95.50
2019-03-04T15:50:58.955Z,95.50
2019-03-04T15:53:31.075Z,95.40
2019-03-04T15:56:03.330Z,94.70
2019-03-04T15:58:33.522Z,94.90
2019-03-04T16:01:04.391Z,94.80
2019-03-04T16:03:36.716Z,94.70
2019-03-04T16:06:07.086Z,94.60
2019-03-04T16:08:37.540Z,93.90
2019-03-04T16:11:07.635Z,93.20
2019-03-04T16:13:38.768Z,92.00
2019-03-04T16:16:09.070Z,90.80
2019-03-04T16:18:39.406Z,90.80
2019-03-04T16:21:11.093Z,90.40
2019-03-04T16:23:41.530Z,90.80
2019-03-04T16:26:14.563Z,91.20
2019-03-04T16:28:45.414Z,91.50
2019-03-04T16:31:15.484Z,90.80
2019-03-04T16:33:45.975Z,91.30
2019-03-04T16:36:16.006Z,91.40
2019-03-04T16:38:46.281Z,91.20
2019-03-04T16:41:26.843Z,90.60
2019-03-04T16:43:57.026Z,90.40
2019-03-04T16:46:27.110Z,91.30
2019-03-04T16:48:57.253Z,91.10
2019-03-04T16:51:27.375Z,91.50
2019-03-04T16:53:57.552Z,91.70
2019-03-04T16:56:27.554Z,92.10
2019-03-04T16:58:57.504Z,92.40
2019-03-04T17:01:27.594Z,92.60
2019-03-04T17:03:59.016Z,92.60
2019-03-04T17:06:29.099Z,92.90
2019-03-04T17:09:05.093Z,93.10
2019-03-04T17:11:35.207Z,93.40
2019-03-04T17:14:05.614Z,93.60
2019-03-04T17:16:35.877Z,94.10
2019-03-04T17:19:06.018Z,94.40
2019-03-04T17:21:36.040Z,94.90
2019-03-04T17:24:07.615Z,95.20
2019-03-04T17:26:37.827Z,95.30
2019-03-04T17:29:08.123Z,95.60
2019-03-04T17:31:38.383Z,95.80
2019-03-04T17:34:08.511Z,95.90
2019-03-04T17:36:38.906Z,96.10
2019-03-04T17:39:09.192Z,96.00
2019-03-04T17:41:39.446Z,96.20
2019-03-04T17:44:09.682Z,96.30
2019-03-04T17:46:39.831Z,96.70
2019-03-04T17:49:09.843Z,96.50
2019-03-04T17:51:39.857Z,96.80
2019-03-04T17:54:10.045Z,97.00
2019-03-04T17:56:40.307Z,97.40
2019-03-04T17:59:10.442Z,97.40
2019-03-04T18:01:40.499Z,97.50
2019-03-04T18:04:10.682Z,97.70
2019-03-04T18:06:40.721Z,97.80
2019-03-04T18:09:10.826Z,98.10
2019-03-04T18:11:41.123Z,98.20
2019-03-04T18:14:11.407Z,98.20
2019-03-04T18:16:41.450Z,98.20
2019-03-04T18:19:11.505Z,98.00
2019-03-04T18:21:41.590Z,98.00
2019-03-04T18:24:11.522Z,97.90
2019-03-04T18:26:52.838Z,97.90
2019-03-04T18:29:51.061Z,98.00
2019-03-04T18:32:52.671Z,97.60
2019-03-04T18:36:09.716Z,97.20
2019-03-04T18:39:05.783Z,97.00
2019-03-04T18:42:20.783Z,96.90
2019-03-04T18:45:21.044Z,97.00
2019-03-04T18:48:14.778Z,97.10
2019-03-04T18:50:44.835Z,96.90
2019-03-04T18:53:14.854Z,97.40
2019-03-04T18:55:45.062Z,97.60
2019-03-04T18:58:15.159Z,97.80
2019-03-04T19:00:45.315Z,97.90
2019-03-04T19:03:19.886Z,97.90
2019-03-04T19:06:04.702Z,97.80
2019-03-04T19:08:34.882Z,98.00
2019-03-04T19:11:05.061Z,98.00
2019-03-04T19:13:42.702Z,98.60
2019-03-04T19:16:12.939Z,98.60
2019-03-04T19:18:43.119Z,98.60
2019-03-04T19:21:13.146Z,99.00
2019-03-04T19:23:43.398Z,98.90
2019-03-04T19:26:13.602Z,99.20
2019-03-04T19:28:43.875Z,99.00
2019-03-04T19:31:14.242Z,98.90
2019-03-04T19:33:44.330Z,98.80
2019-03-04T19:36:14.582Z,99.10
2019-03-04T19:38:44.650Z,99.00
2019-03-04T19:41:14.631Z,99.10
2019-03-04T19:43:44.693Z,98.80
2019-03-04T19:46:15.295Z,98.80
2019-03-04T19:48:45.320Z,98.60
2019-03-04T19:51:15.585Z,98.70
2019-03-04T19:53:45.882Z,99.00
2019-03-04T19:56:16.055Z,98.60
2019-03-04T19:58:46.148Z,98.80
2019-03-04T20:01:17.162Z,99.00
2019-03-04T20:03:49.901Z,98.90
2019-03-04T20:06:19.999Z,98.80
2019-03-04T20:08:50.785Z,98.60
2019-03-04T20:11:21.006Z,98.60
2019-03-04T20:13:51.050Z,98.50
2019-03-04T20:16:21.123Z,98.40
2019-03-04T20:18:51.316Z,98.50
2019-03-04T20:21:21.331Z,98.70
2019-03-04T20:23:51.451Z,98.70
2019-03-04T20:26:21.542Z,98.50
2019-03-04T20:28:52.132Z,98.50
2019-03-04T20:31:22.458Z,98.80
2019-03-04T20:33:52.685Z,98.70
2019-03-04T20:36:23.234Z,98.60
2019-03-04T20:38:53.370Z,98.60
2019-03-04T20:41:23.523Z,98.70
2019-03-04T20:43:53.789Z,98.80
2019-03-04T20:46:23.920Z,98.80
2019-03-04T20:48:53.999Z,98.80
2019-03-04T20:51:24.216Z,99.50
2019-03-04T20:53:54.218Z,99.70
2019-03-04T20:56:24.371Z,99.90
2019-03-04T20:58:54.405Z,99.90
2019-03-04T21:01:25.070Z,99.90
2019-03-04T21:03:55.257Z,99.90
2019-03-04T21:06:25.413Z,99.90
2019-03-04T21:08:55.552Z,99.90
2019-03-04T21:11:27.955Z,99.90
2019-03-04T21:13:58.031Z,99.90
2019-03-04T21:16:28.251Z,99.90
2019-03-04T21:18:58.250Z,99.90
2019-03-04T21:21:28.520Z,99.90
2019-03-04T21:23:58.658Z,99.90
2019-03-04T21:26:42.887Z,99.90
2019-03-04T21:29:53.888Z,99.90
2019-03-04T21:32:31.635Z,99.90
2019-03-04T21:35:56.891Z,99.90
2019-03-04T21:38:30.023Z,99.90
2019-03-04T21:41:15.875Z,99.90
2019-03-04T21:43:55.632Z,99.90
2019-03-04T21:46:57.671Z,99.90
2019-03-04T21:49:29.324Z,99.90
2019-03-04T21:52:39.233Z,99.90
2019-03-04T21:55:13.031Z,99.90
2019-03-04T21:57:48.699Z,99.90
2019-03-04T22:00:23.010Z,99.90
2019-03-04T22:03:05.455Z,99.90
2019-03-04T22:05:35.386Z,99.90
2019-03-04T22:08:05.211Z,99.90
2019-03-04T22:10:34.980Z,99.90
2019-03-04T22:13:04.989Z,99.90
2019-03-04T22:15:34.674Z,99.90
2019-03-04T22:18:05.514Z,99.90
2019-03-04T22:20:39.815Z,99.90
2019-03-04T22:23:09.526Z,99.90
2019-03-04T22:25:39.235Z,99.90
2019-03-04T22:28:08.998Z,99.90
2019-03-04T22:30:39.123Z,99.90
2019-03-04T22:33:09.022Z,99.90
2019-03-04T22:35:38.614Z,99.90
2019-03-04T22:38:08.390Z,99.90
2019-03-04T22:40:38.184Z,99.90
2019-03-04T22:43:07.952Z,99.90
2019-03-04T22:45:37.656Z,99.90
2019-03-04T22:48:07.394Z,99.70
2019-03-04T22:50:37.374Z,99.10
2019-03-04T22:53:07.097Z,98.80
2019-03-04T22:55:37.784Z,98.50
2019-03-04T22:58:07.559Z,98.30
2019-03-04T23:01:30.457Z,98.40
2019-03-04T23:04:05.299Z,98.40
2019-03-04T23:06:35.547Z,98.50
2019-03-04T23:09:06.814Z,98.20
2019-03-04T23:11:36.614Z,98.00
2019-03-04T23:14:11.676Z,98.00
2019-03-04T23:16:41.487Z,97.90
2019-03-04T23:19:11.515Z,98.00
2019-03-04T23:21:41.235Z,97.90
2019-03-04T23:24:10.971Z,97.80
2019-03-04T23:26:40.639Z,97.90
2019-03-04T23:29:10.382Z,98.10
2019-03-04T23:31:40.083Z,98.40
2019-03-04T23:34:09.810Z,98.40
2019-03-04T23:36:39.519Z,98.40
2019-03-04T23:39:09.727Z,98.80
2019-03-04T23:41:39.455Z,98.90
2019-03-04T23:44:09.247Z,99.20
2019-03-04T23:46:38.898Z,99.00
2019-03-04T23:49:08.619Z,99.10
2019-03-04T23:51:38.369Z,99.30
2019-03-04T23:54:08.130Z,99.20
2019-03-04T23:56:38.171Z,99.10
2019-03-04T23:59:08.088Z,99.20
